Time;durP1;ratioP1;P1;durP2;ratioP2;P2;SDS_P1;SDS_P2;PMS_P1;PMS_P2;Temp;Humidity;BMP_temperature;BMP_pressure;BME280_temperature;BME280_humidity;BME280_pressure;Samples;Min_cycle;Max_cycle;Signal;HPM_P1;HPM_P2
2023/12/30 00:00:46;;;;;;;;;6.75;4.00;;;;;10.97;75.75;101027.28;5023686;28;45555;-71
2023/12/30 00:03:11;;;;;;;;;5.00;1.75;;;;;10.97;75.39;101024.66;5039669;28;47487;-71
2023/12/30 00:05:36;;;;;;;;;6.25;2.00;;;;;10.96;75.42;101032.53;5012348;28;54692;-71
2023/12/30 00:08:02;;;;;;;;;1.75;0.00;;;;;10.94;75.67;101024.75;5029017;28;67244;-71
2023/12/30 00:10:28;;;;;;;;;3.50;2.00;;;;;10.94;75.65;101021.25;5024458;28;45324;-72
2023/12/30 00:12:53;;;;;;;;;4.25;2.00;;;;;10.92;75.63;101021.28;5028799;28;45343;-71
2023/12/30 00:15:20;;;;;;;;;3.00;1.25;;;;;10.92;75.60;101016.03;5042251;28;45463;-70
2023/12/30 00:17:46;;;;;;;;;4.75;2.00;;;;;10.90;75.75;101004.75;5020727;28;46406;-70
2023/12/30 00:20:11;;;;;;;;;4.75;2.75;;;;;10.91;75.64;101016.13;5020881;28;45629;-70
2023/12/30 00:22:37;;;;;;;;;3.75;3.00;;;;;10.93;75.77;101014.31;5036879;28;46077;-70
2023/12/30 00:25:03;;;;;;;;;3.00;2.50;;;;;10.94;75.69;101024.75;5041955;28;45192;-71
2023/12/30 00:27:28;;;;;;;;;3.50;2.00;;;;;10.97;75.28;101019.41;5021683;28;45322;-70
2023/12/30 00:29:54;;;;;;;;;3.00;2.00;;;;;10.98;75.76;101017.69;5013755;28;71414;-70
2023/12/30 00:32:19;;;;;;;;;5.50;2.00;;;;;10.98;75.21;101020.31;5028864;28;64832;-70
2023/12/30 00:34:44;;;;;;;;;3.00;2.00;;;;;10.99;75.30;101022.00;5023900;28;57390;-70
2023/12/30 00:37:10;;;;;;;;;7.50;2.00;;;;;10.99;75.33;101022.00;5028159;28;45377;-71
2023/12/30 00:39:35;;;;;;;;;2.75;1.25;;;;;10.98;75.34;101015.06;5020663;28;45315;-70
2023/12/30 00:42:00;;;;;;;;;6.00;2.50;;;;;11.00;75.29;101018.50;5022415;28;67085;-70
2023/12/30 00:44:26;;;;;;;;;6.25;3.25;;;;;11.00;75.30;101016.72;5041899;28;45249;-70
2023/12/30 00:46:51;;;;;;;;;2.50;2.00;;;;;11.03;75.36;101026.28;5039396;28;69389;-70
2023/12/30 00:49:17;;;;;;;;;4.75;3.00;;;;;11.04;75.09;101012.28;5039857;28;61252;-71
2023/12/30 00:51:42;;;;;;;;;5.75;4.00;;;;;11.06;75.13;101017.50;5030311;28;46281;-70
2023/12/30 00:54:07;;;;;;;;;32.50;26.50;;;;;11.07;75.17;101011.38;5018685;28;70155;-70
2023/12/30 00:56:34;;;;;;;;;25.75;18.75;;;;;11.08;74.64;101007.81;5034766;28;67752;-71
2023/12/30 00:58:59;;;;;;;;;19.00;14.25;;;;;11.09;75.11;101010.41;5039928;28;65697;-70
2023/12/30 01:01:24;;;;;;;;;6.00;3.00;;;;;11.08;74.84;101010.44;5039712;28;45393;-70
2023/12/30 01:03:49;;;;;;;;;5.25;3.00;;;;;11.05;74.92;101010.50;5035001;28;73210;-70
2023/12/30 01:06:15;;;;;;;;;3.75;3.00;;;;;11.01;74.48;101012.34;5022352;28;45282;-70
2023/12/30 01:08:40;;;;;;;;;3.50;3.00;;;;;10.97;74.83;101016.78;5021099;28;61547;-71
2023/12/30 01:11:05;;;;;;;;;5.25;2.75;;;;;10.94;75.05;101019.50;5020597;28;63882;-71
2023/12/30 01:13:31;;;;;;;;;5.50;2.50;;;;;10.90;74.88;101020.47;5040913;28;50602;-70
2023/12/30 01:15:56;;;;;;;;;3.50;2.75;;;;;10.89;74.83;101028.34;5040955;28;62271;-71
2023/12/30 01:18:22;;;;;;;;;5.50;2.00;;;;;10.84;74.81;101018.00;5026260;28;45339;-71
2023/12/30 01:20:47;;;;;;;;;6.00;4.00;;;;;10.83;75.07;101013.66;5021032;28;62219;-71
2023/12/30 01:23:13;;;;;;;;;6.75;2.50;;;;;10.80;75.03;101019.84;5039209;28;45419;-70
2023/12/30 01:25:38;;;;;;;;;5.75;4.00;;;;;10.77;75.18;101019.91;5040694;28;45257;-70
2023/12/30 01:28:04;;;;;;;;;2.50;2.00;;;;;10.74;75.41;101016.50;5038752;28;46028;-70
2023/12/30 01:30:30;;;;;;;;;5.50;2.00;;;;;10.70;75.66;101020.09;5022597;28;45450;-70
2023/12/30 01:32:55;;;;;;;;;7.00;3.00;;;;;10.69;75.35;101018.34;5027636;28;45452;-70
2023/12/30 01:35:21;;;;;;;;;4.50;3.00;;;;;10.67;75.25;101020.16;5022659;28;54017;-71
2023/12/30 01:37:46;;;;;;;;;3.25;2.00;;;;;10.62;75.31;101017.63;5022822;28;45519;-71
2023/12/30 01:40:11;;;;;;;;;2.75;1.50;;;;;10.61;75.72;101027.25;5040703;28;46047;-71
2023/12/30 01:42:40;;;;;;;;;3.00;2.00;;;;;10.59;75.53;101021.19;5026379;28;45471;-70
2023/12/30 01:45:05;;;;;;;;;4.00;3.00;;;;;10.58;75.78;101027.31;5038640;28;45389;-71
2023/12/30 01:47:31;;;;;;;;;5.00;3.00;;;;;10.56;76.07;101023.84;5033941;28;45305;-71
2023/12/30 01:49:56;;;;;;;;;5.75;4.75;;;;;10.54;75.74;101030.03;5003087;28;73787;-71
2023/12/30 01:52:22;;;;;;;;;1.75;1.75;;;;;10.54;75.63;101041.34;5032564;28;73291;-70
2023/12/30 01:54:47;;;;;;;;;3.25;1.75;;;;;10.52;75.67;101035.31;5014526;28;68291;-71
2023/12/30 01:57:12;;;;;;;;;5.00;3.00;;;;;10.51;75.71;101036.19;5039291;28;73206;-71
2023/12/30 01:59:38;;;;;;;;;5.00;2.00;;;;;10.50;75.75;101037.09;5029128;28;45421;-71
2023/12/30 02:02:03;;;;;;;;;5.00;2.00;;;;;10.49;75.72;101024.91;5020885;28;70875;-70
2023/12/30 02:04:30;;;;;;;;;4.50;3.00;;;;;10.49;75.57;101034.50;5020970;28;45255;-70
2023/12/30 02:06:55;;;;;;;;;6.00;3.25;;;;;10.46;75.79;101043.28;5037607;28;45471;-71
2023/12/30 02:09:20;;;;;;;;;3.25;2.00;;;;;10.45;75.53;101046.81;5031483;28;71401;-71
2023/12/30 02:11:46;;;;;;;;;5.25;2.25;;;;;10.43;75.48;101048.59;5018027;28;72167;-71
2023/12/30 02:14:27;;;;;;;;;2.75;2.50;;;;;10.43;75.58;101054.69;5039501;28;69084;-71
2023/12/30 02:16:52;;;;;;;;;7.50;4.00;;;;;10.42;75.65;101060.78;5036633;28;45507;-72
2023/12/30 02:19:18;;;;;;;;;4.00;2.00;;;;;10.43;75.78;101066.91;5022429;28;46625;-70
2023/12/30 02:21:44;;;;;;;;;3.50;2.00;;;;;10.41;75.61;101063.44;5033663;28;45278;-70
2023/12/30 02:24:09;;;;;;;;;6.50;2.00;;;;;10.40;75.44;101065.19;5034300;28;45348;-71
2023/12/30 02:26:35;;;;;;;;;4.25;2.00;;;;;10.41;75.32;101071.28;5019729;28;72785;-70
2023/12/30 02:29:00;;;;;;;;;4.00;1.00;;;;;10.41;75.41;101071.28;5022407;28;74485;-70
2023/12/30 02:31:25;;;;;;;;;4.75;2.50;;;;;10.41;75.38;101076.50;5032992;28;58506;-71
2023/12/30 02:33:51;;;;;;;;;5.00;2.00;;;;;10.40;75.44;101072.19;5015196;28;62982;-71
2023/12/30 02:36:17;;;;;;;;;5.50;2.75;;;;;10.40;75.34;101070.44;5024386;28;45350;-70
2023/12/30 02:38:42;;;;;;;;;1.75;1.50;;;;;10.41;75.72;101066.94;5031005;28;61358;-70
2023/12/30 02:41:07;;;;;;;;;5.00;2.00;;;;;10.41;75.79;101066.06;5033902;28;71154;-70
2023/12/30 02:43:46;;;;;;;;;3.50;2.00;;;;;10.42;75.58;101073.03;5031685;28;68074;-70
2023/12/30 02:46:11;;;;;;;;;6.25;2.00;;;;;10.41;75.50;101068.66;5007545;28;45412;-70
2023/12/30 02:48:36;;;;;;;;;2.00;2.00;;;;;10.43;75.32;101074.75;5032112;28;72983;-70
2023/12/30 02:51:02;;;;;;;;;6.00;2.25;;;;;10.42;75.28;101068.63;5007017;28;73773;-70
2023/12/30 02:53:27;;;;;;;;;4.00;2.50;;;;;10.41;75.07;101069.56;5032304;28;53731;-70
2023/12/30 02:55:52;;;;;;;;;2.00;2.00;;;;;10.41;75.20;101066.06;5021234;28;70579;-71
2023/12/30 02:58:17;;;;;;;;;2.00;1.25;;;;;10.40;75.03;101056.50;5038601;28;74704;-70
2023/12/30 03:00:43;;;;;;;;;2.75;1.00;;;;;10.39;74.86;101063.50;5020855;28;74655;-70
2023/12/30 03:03:08;;;;;;;;;2.25;1.00;;;;;10.38;74.92;101055.66;5038851;28;65526;-70
2023/12/30 03:05:34;;;;;;;;;2.75;2.00;;;;;10.37;74.84;101057.41;5037904;28;73229;-70
2023/12/30 03:07:59;;;;;;;;;5.50;1.50;;;;;10.38;75.34;101055.66;5038638;28;46396;-70
2023/12/30 03:10:24;;;;;;;;;1.25;1.00;;;;;10.37;75.39;101064.41;5017784;28;45448;-70
2023/12/30 03:12:50;;;;;;;;;2.00;1.50;;;;;10.35;75.37;101053.97;5020538;28;45308;-70
2023/12/30 03:15:15;;;;;;;;;4.75;3.00;;;;;10.36;75.30;101060.09;5032451;28;45355;-70
2023/12/30 03:17:41;;;;;;;;;3.50;0.00;;;;;10.32;75.34;101056.63;5024997;28;46284;-71
2023/12/30 03:20:09;;;;;;;;;2.25;2.25;;;;;10.32;75.56;101056.63;5039588;28;45458;-70
2023/12/30 03:22:35;;;;;;;;;4.00;2.00;;;;;10.32;75.42;101061.00;5020502;28;45294;-70
2023/12/30 03:25:00;;;;;;;;;3.00;3.00;;;;;10.32;75.46;101063.63;5027624;28;73464;-70
2023/12/30 03:27:25;;;;;;;;;2.25;1.75;;;;;10.31;75.46;101069.75;5024204;28;68438;-70
2023/12/30 03:29:51;;;;;;;;;8.50;2.00;;;;;10.30;75.40;101081.09;5042635;28;56909;-70
2023/12/30 03:32:16;;;;;;;;;5.50;2.00;;;;;10.30;75.54;101079.31;5029878;28;68245;-70
2023/12/30 03:34:41;;;;;;;;;4.25;3.00;;;;;10.31;75.71;101072.34;5034554;28;69890;-70
2023/12/30 03:37:07;;;;;;;;;6.50;2.25;;;;;10.30;75.61;101081.94;5030157;28;75783;-70
2023/12/30 03:39:32;;;;;;;;;2.50;2.00;;;;;10.31;75.74;101081.09;5037968;28;48569;-71
2023/12/30 03:41:57;;;;;;;;;3.00;1.75;;;;;10.30;75.39;101087.16;5028865;28;65673;-70
2023/12/30 03:44:22;;;;;;;;;3.50;1.00;;;;;10.30;75.69;101081.94;5038589;28;72128;-71
2023/12/30 03:46:48;;;;;;;;;6.00;2.50;;;;;10.28;75.74;101070.66;5041331;28;75574;-70
2023/12/30 03:49:13;;;;;;;;;2.00;2.00;;;;;10.28;75.53;101075.88;5039299;28;45372;-71
2023/12/30 03:51:39;;;;;;;;;3.00;2.00;;;;;10.29;75.79;101079.34;5029475;28;45250;-70
2023/12/30 03:54:04;;;;;;;;;5.25;2.00;;;;;10.29;75.72;101079.34;5033781;28;45425;-70
2023/12/30 03:56:30;;;;;;;;;1.00;1.00;;;;;10.27;75.58;101082.88;5036037;28;46240;-70
2023/12/30 03:58:59;;;;;;;;;5.50;2.75;;;;;10.27;75.95;101084.63;5037615;28;45455;-70
2023/12/30 04:01:25;;;;;;;;;3.00;1.75;;;;;10.26;75.78;101080.28;5036318;28;45243;-70
2023/12/30 04:03:50;;;;;;;;;8.00;2.00;;;;;10.25;75.54;101075.94;5036893;28;45352;-70
2023/12/30 04:06:19;;;;;;;;;2.25;2.00;;;;;10.24;75.86;101076.84;5023343;28;73257;-70
2023/12/30 04:08:44;;;;;;;;;2.00;1.00;;;;;10.23;75.80;101073.38;5035261;28;45721;-70
2023/12/30 04:11:09;;;;;;;;;4.00;1.50;;;;;10.23;75.61;101072.50;5036512;28;45346;-70
2023/12/30 04:13:35;;;;;;;;;3.50;2.00;;;;;10.23;75.60;101069.88;5030044;28;51442;-69
2023/12/30 04:16:00;;;;;;;;;10.50;1.00;;;;;10.23;75.71;101075.09;5040355;28;68290;-70
2023/12/30 04:18:25;;;;;;;;;6.00;2.75;;;;;10.21;75.77;101058.59;5031137;28;73307;-70
2023/12/30 04:20:51;;;;;;;;;7.25;2.00;;;;;10.21;76.05;101069.06;5022413;28;68152;-71
2023/12/30 04:23:16;;;;;;;;;7.25;2.00;;;;;10.20;75.90;101068.19;5023455;28;73415;-69
2023/12/30 04:25:41;;;;;;;;;4.75;1.50;;;;;10.20;75.86;101065.59;5024040;28;47564;-70
2023/12/30 04:28:07;;;;;;;;;7.00;1.25;;;;;10.20;76.04;101065.59;5041134;28;73159;-69
2023/12/30 04:30:33;;;;;;;;;7.25;1.75;;;;;10.19;75.76;101065.59;5029242;28;45395;-70
2023/12/30 04:32:58;;;;;;;;;3.00;0.50;;;;;10.19;75.65;101060.38;5027162;28;45539;-70
2023/12/30 04:35:23;;;;;;;;;3.25;2.00;;;;;10.18;75.37;101054.28;5032664;28;46147;-70
2023/12/30 04:37:49;;;;;;;;;3.25;2.00;;;;;10.19;75.77;101065.59;5030277;28;45428;-70
2023/12/30 04:40:14;;;;;;;;;6.75;1.75;;;;;10.18;75.88;101064.75;5022997;28;67138;-70
2023/12/30 04:42:39;;;;;;;;;3.50;2.75;;;;;10.18;75.47;101064.75;5031136;28;46820;-70
2023/12/30 04:45:05;;;;;;;;;3.00;1.75;;;;;10.15;75.27;101067.44;5025576;28;74493;-71
2023/12/30 04:47:30;;;;;;;;;3.25;2.50;;;;;10.16;75.49;101066.53;5040957;28;45257;-70
2023/12/30 04:49:56;;;;;;;;;5.25;1.00;;;;;10.16;75.08;101070.91;5038852;28;45306;-70
2023/12/30 04:52:21;;;;;;;;;6.75;2.00;;;;;10.16;75.31;101065.66;5029038;28;65982;-70
2023/12/30 04:54:46;;;;;;;;;6.50;2.00;;;;;10.15;75.13;101061.34;5019318;28;73979;-71
2023/12/30 04:57:12;;;;;;;;;7.50;2.50;;;;;10.15;75.48;101070.03;5037842;28;45361;-70
2023/12/30 04:59:37;;;;;;;;;2.75;1.25;;;;;10.14;75.21;101068.31;5028840;28;68036;-70
2023/12/30 05:02:03;;;;;;;;;3.25;1.00;;;;;10.14;75.12;101067.44;5040645;28;45244;-70
2023/12/30 05:04:28;;;;;;;;;4.25;2.00;;;;;10.14;74.95;101070.06;5041678;28;46440;-69
2023/12/30 05:06:53;;;;;;;;;5.00;1.00;;;;;10.13;74.99;101064.00;5033697;28;72188;-70
2023/12/30 05:09:20;;;;;;;;;1.00;1.00;;;;;10.12;75.19;101064.00;5032039;28;69433;-69
2023/12/30 05:11:47;;;;;;;;;4.50;2.00;;;;;10.12;74.88;101058.78;5041283;28;45456;-70
2023/12/30 05:14:14;;;;;;;;;1.50;0.25;;;;;10.11;75.08;101062.28;5011354;28;46192;-69
2023/12/30 05:16:44;;;;;;;;;4.25;1.00;;;;;10.10;75.08;101057.97;5024449;28;45430;-71
2023/12/30 05:19:10;;;;;;;;;5.50;2.00;;;;;10.10;75.26;101052.72;5025074;28;45725;-69
2023/12/30 05:21:35;;;;;;;;;3.25;1.75;;;;;10.08;75.33;101056.22;5034245;28;45380;-70
2023/12/30 05:24:01;;;;;;;;;4.25;2.00;;;;;10.09;75.15;101046.59;5033071;28;75492;-71
2023/12/30 05:26:26;;;;;;;;;3.50;2.00;;;;;10.08;75.42;101042.28;5040753;28;45489;-70
2023/12/30 05:28:55;;;;;;;;;2.25;1.75;;;;;10.08;75.66;101045.75;5028476;28;66818;-69
2023/12/30 05:31:20;;;;;;;;;2.75;2.00;;;;;10.07;75.38;101044.06;5021503;28;45238;-69
2023/12/30 05:33:46;;;;;;;;;7.25;3.00;;;;;10.06;75.44;101044.09;5028458;28;51462;-69
2023/12/30 05:36:11;;;;;;;;;2.50;1.25;;;;;10.06;75.36;101044.09;5036916;28;45264;-70
2023/12/30 05:38:37;;;;;;;;;4.25;1.50;;;;;10.05;75.48;101043.19;5021593;28;45419;-69
2023/12/30 05:41:02;;;;;;;;;4.50;1.00;;;;;10.05;75.59;101043.19;5037042;28;73410;-69
2023/12/30 05:43:27;;;;;;;;;5.25;2.75;;;;;10.05;75.53;101039.72;5026748;28;54520;-69
2023/12/30 05:45:53;;;;;;;;;4.75;1.00;;;;;10.06;75.47;101050.16;5036725;28;45304;-70
2023/12/30 05:48:18;;;;;;;;;5.00;2.00;;;;;10.05;75.80;101042.34;5030028;28;45449;-69
2023/12/30 05:50:44;;;;;;;;;3.50;2.00;;;;;10.05;75.76;101042.34;5032049;28;55607;-69
2023/12/30 05:53:10;;;;;;;;;3.50;1.00;;;;;10.05;75.72;101030.13;5021158;28;45421;-70
2023/12/30 05:55:37;;;;;;;;;4.75;2.00;;;;;10.06;76.22;101044.09;5037313;28;45417;-70
2023/12/30 05:58:02;;;;;;;;;2.00;2.00;;;;;10.06;75.88;101042.31;5028731;28;45476;-70
2023/12/30 06:00:28;;;;;;;;;5.25;2.00;;;;;10.07;76.05;101032.72;5021983;28;45488;-69
2023/12/30 06:02:53;;;;;;;;;3.50;1.75;;;;;10.08;75.94;101032.69;5039854;28;72237;-69
2023/12/30 06:05:18;;;;;;;;;3.25;1.75;;;;;10.12;75.86;101033.47;5035050;28;72194;-69
2023/12/30 06:07:44;;;;;;;;;2.75;1.00;;;;;10.15;76.04;101033.44;5022330;28;45420;-69
2023/12/30 06:10:09;;;;;;;;;6.00;2.75;;;;;10.15;76.05;101038.66;5023817;28;70643;-70
2023/12/30 06:12:34;;;;;;;;;6.75;1.25;;;;;10.17;76.06;101038.63;5031083;28;53063;-71
2023/12/30 06:15:00;;;;;;;;;2.75;2.00;;;;;10.13;76.07;101032.59;5019458;28;45269;-69
2023/12/30 06:17:25;;;;;;;;;3.75;1.00;;;;;10.14;76.03;101039.53;5027390;28;45484;-70
2023/12/30 06:19:50;;;;;;;;;5.25;2.00;;;;;10.14;75.89;101041.31;5026564;28;45279;-70
2023/12/30 06:22:16;;;;;;;;;4.75;2.00;;;;;10.13;75.80;101050.03;5027118;28;71246;-70
2023/12/30 06:24:41;;;;;;;;;4.00;2.75;;;;;10.12;76.11;101041.31;5027444;28;69464;-71
2023/12/30 06:27:06;;;;;;;;;8.00;2.00;;;;;10.11;75.80;101051.81;5037344;28;68705;-70
2023/12/30 06:29:32;;;;;;;;;6.50;5.00;;;;;10.10;76.03;101053.56;5048925;28;65479;-69
2023/12/30 06:31:57;;;;;;;;;2.50;2.00;;;;;10.09;76.02;101049.22;5029223;28;57864;-70
2023/12/30 06:34:23;;;;;;;;;5.50;2.00;;;;;10.08;76.29;101052.75;5041605;28;45462;-69
2023/12/30 06:36:48;;;;;;;;;3.00;2.50;;;;;10.08;76.01;101052.75;5034829;28;45527;-70
2023/12/30 06:39:16;;;;;;;;;2.00;2.00;;;;;10.06;76.00;101044.09;5034239;28;45364;-69
2023/12/30 06:41:41;;;;;;;;;3.00;2.50;;;;;10.06;76.52;101047.56;5002468;28;46816;-69
2023/12/30 06:44:06;;;;;;;;;2.00;2.00;;;;;10.06;76.21;101046.69;5036787;28;45335;-70
2023/12/30 06:46:33;;;;;;;;;5.25;2.00;;;;;10.08;76.31;101050.13;5022184;28;45317;-69
2023/12/30 06:48:59;;;;;;;;;2.50;2.00;;;;;10.07;76.39;101051.00;5033673;28;45471;-69
2023/12/30 06:51:24;;;;;;;;;7.00;2.75;;;;;10.06;76.39;101051.94;5031808;28;47762;-69
2023/12/30 06:53:49;;;;;;;;;6.50;1.75;;;;;10.05;76.10;101055.41;5028200;28;45447;-69
2023/12/30 06:56:15;;;;;;;;;4.75;3.00;;;;;10.06;76.35;101054.53;5015491;28;45274;-69
2023/12/30 06:58:45;;;;;;;;;5.00;2.25;;;;;10.04;76.23;101051.09;5024343;28;68905;-69
2023/12/30 07:01:10;;;;;;;;;4.50;2.00;;;;;10.02;76.53;101053.75;5029041;28;45489;-69
2023/12/30 07:03:36;;;;;;;;;5.00;2.00;;;;;10.00;76.35;101049.41;5021409;28;45428;-69
2023/12/30 07:06:01;;;;;;;;;7.50;2.75;;;;;10.02;76.57;101055.47;5030491;28;58798;-69
2023/12/30 07:08:26;;;;;;;;;2.25;1.50;;;;;10.00;76.49;101058.13;5025843;28;73157;-70
2023/12/30 07:10:52;;;;;;;;;6.25;1.75;;;;;9.99;76.43;101051.19;5036234;28;46020;-70
2023/12/30 07:13:17;;;;;;;;;4.25;2.00;;;;;9.99;76.27;101055.56;5036752;28;71976;-69
2023/12/30 07:15:42;;;;;;;;;9.00;3.00;;;;;10.00;76.76;101054.66;5027666;28;45481;-69
2023/12/30 07:18:08;;;;;;;;;4.00;2.00;;;;;9.99;76.52;101051.19;5033623;28;72309;-70
2023/12/30 07:20:35;;;;;;;;;3.75;2.00;;;;;10.00;76.28;101049.41;5021561;28;45344;-69
2023/12/30 07:23:02;;;;;;;;;5.75;2.75;;;;;10.01;76.48;101049.38;5035516;28;45274;-70
2023/12/30 07:25:27;;;;;;;;;5.75;2.00;;;;;10.00;76.67;101045.03;5028434;28;45277;-69
2023/12/30 07:27:52;;;;;;;;;4.25;2.00;;;;;9.99;76.73;101045.94;5038010;28;45321;-71
2023/12/30 07:30:18;;;;;;;;;3.75;2.75;;;;;9.98;76.52;101045.97;5009757;28;73423;-69
2023/12/30 07:32:43;;;;;;;;;4.75;2.00;;;;;9.97;76.76;101041.63;5024203;28;46069;-70
2023/12/30 07:35:09;;;;;;;;;3.00;2.00;;;;;9.97;76.76;101049.47;5004862;28;45508;-70
2023/12/30 07:37:37;;;;;;;;;1.50;1.50;;;;;9.97;76.65;101054.69;5037287;28;45167;-70
2023/12/30 07:40:05;;;;;;;;;3.25;2.00;;;;;9.93;76.75;101051.28;5036376;28;46059;-70
2023/12/30 07:42:31;;;;;;;;;3.25;1.75;;;;;9.94;77.01;101054.78;5024737;28;45336;-71
2023/12/30 07:44:56;;;;;;;;;5.00;2.00;;;;;9.94;77.02;101049.56;5012421;28;45258;-70
2023/12/30 07:47:21;;;;;;;;;4.25;2.75;;;;;9.91;76.77;101042.59;5024043;28;73379;-70
2023/12/30 07:49:47;;;;;;;;;4.25;2.50;;;;;9.91;76.89;101042.59;5009432;28;70524;-69
2023/12/30 07:52:13;;;;;;;;;7.50;2.00;;;;;9.92;76.98;101040.88;5020302;28;45337;-69
2023/12/30 07:54:38;;;;;;;;;3.00;3.00;;;;;9.90;76.89;101043.53;5028463;28;70470;-69
2023/12/30 07:57:03;;;;;;;;;2.75;1.75;;;;;9.89;76.91;101036.56;5034138;28;45246;-70
2023/12/30 07:59:29;;;;;;;;;7.00;2.00;;;;;9.89;77.01;101045.25;5030683;28;47057;-69
2023/12/30 08:01:56;;;;;;;;;1.50;1.00;;;;;9.88;76.59;101043.53;5024980;28;64947;-69
2023/12/30 08:04:22;;;;;;;;;2.75;2.00;;;;;9.88;76.82;101042.69;5038091;28;45348;-69
2023/12/30 08:06:48;;;;;;;;;2.25;2.00;;;;;9.86;76.83;101034.88;5020778;28;45783;-69
2023/12/30 08:09:13;;;;;;;;;4.50;2.00;;;;;9.89;76.71;101041.78;5027720;28;45357;-69
2023/12/30 08:11:39;;;;;;;;;4.25;2.50;;;;;9.89;76.76;101047.88;5026539;28;45392;-70
2023/12/30 08:14:04;;;;;;;;;6.75;2.00;;;;;9.90;76.25;101046.13;5041151;28;45479;-69
2023/12/30 08:16:29;;;;;;;;;3.50;1.75;;;;;9.89;76.37;101045.25;5023170;28;45464;-69
2023/12/30 08:18:55;;;;;;;;;3.00;1.25;;;;;9.92;75.97;101051.34;5027545;28;46007;-69
2023/12/30 08:21:21;;;;;;;;;4.75;2.75;;;;;9.93;75.89;101040.81;5039772;28;45341;-69
2023/12/30 08:23:47;;;;;;;;;4.00;3.00;;;;;9.94;76.08;101042.56;5024575;28;45390;-69
2023/12/30 08:26:12;;;;;;;;;2.25;1.50;;;;;9.97;76.10;101039.00;5025637;28;45226;-70
2023/12/30 08:28:37;;;;;;;;;8.75;3.00;;;;;9.98;75.70;101043.34;5004151;28;74577;-69
2023/12/30 08:31:03;;;;;;;;;3.00;2.50;;;;;10.00;75.76;101045.03;5024882;28;66549;-70
2023/12/30 08:33:28;;;;;;;;;3.00;1.00;;;;;10.02;75.81;101032.81;5043637;28;45269;-70
2023/12/30 08:35:53;;;;;;;;;3.00;2.00;;;;;10.04;75.93;101019.72;5039202;28;67656;-69
2023/12/30 08:38:19;;;;;;;;;6.25;2.50;;;;;10.08;75.88;101019.63;5029223;28;75565;-69
2023/12/30 08:40:44;;;;;;;;;3.00;2.00;;;;;10.16;75.92;101019.44;5037985;28;63774;-70
2023/12/30 08:43:11;;;;;;;;;2.25;1.00;;;;;10.21;76.10;101016.75;5024969;28;54410;-70
2023/12/30 08:45:36;;;;;;;;;4.25;3.00;;;;;10.26;75.93;101013.13;5028967;28;45422;-69
2023/12/30 08:48:02;;;;;;;;;2.25;1.25;;;;;10.32;75.96;101012.16;5037129;28;46270;-69
2023/12/30 08:50:27;;;;;;;;;4.00;2.00;;;;;10.37;76.11;101007.69;5010225;28;45402;-70
2023/12/30 08:52:54;;;;;;;;;5.75;2.00;;;;;10.42;76.06;101003.22;5039568;28;64209;-70
2023/12/30 08:55:19;;;;;;;;;7.25;3.50;;;;;10.49;75.76;100996.13;5027933;28;45422;-70
2023/12/30 08:57:44;;;;;;;;;4.00;3.50;;;;;10.51;75.37;100985.63;5039703;28;73281;-70
2023/12/30 09:00:10;;;;;;;;;3.50;3.00;;;;;10.51;75.77;100990.84;5011576;28;58785;-69
2023/12/30 09:02:36;;;;;;;;;6.00;3.00;;;;;10.49;75.93;100985.66;5041915;28;45325;-70
2023/12/30 09:05:02;;;;;;;;;7.00;2.75;;;;;10.50;75.54;100979.53;5036623;28;45295;-70
2023/12/30 09:07:31;;;;;;;;;4.00;3.00;;;;;10.50;76.04;100989.13;5031460;28;46329;-70
2023/12/30 09:09:57;;;;;;;;;4.00;4.00;;;;;10.48;76.24;100981.28;5038244;28;45325;-70
2023/12/30 09:12:23;;;;;;;;;6.25;4.50;;;;;10.50;75.94;100982.16;5027002;28;45443;-70
2023/12/30 09:14:48;;;;;;;;;5.50;2.50;;;;;10.50;76.26;100979.53;5035672;28;45915;-69
2023/12/30 09:17:14;;;;;;;;;11.00;4.00;;;;;10.52;76.24;100979.50;5025727;28;73003;-70
2023/12/30 09:19:39;;;;;;;;;6.00;4.00;;;;;10.54;76.44;100986.41;5037193;28;45427;-69
2023/12/30 09:22:07;;;;;;;;;4.50;3.00;;;;;10.57;76.28;100988.97;5020312;28;66734;-70
2023/12/30 09:24:36;;;;;;;;;7.00;4.25;;;;;10.63;76.69;100985.34;5022830;28;45481;-69
2023/12/30 09:27:02;;;;;;;;;9.50;6.00;;;;;10.69;76.22;100984.31;5033266;28;46326;-70
2023/12/30 09:29:27;;;;;;;;;8.50;4.00;;;;;10.72;76.47;100984.25;5040840;28;45467;-69
2023/12/30 09:31:52;;;;;;;;;13.00;5.00;;;;;10.71;76.23;100991.25;5030173;28;65470;-69
2023/12/30 09:34:19;;;;;;;;;7.50;4.00;;;;;10.72;76.61;100979.03;5019844;28;71866;-69
2023/12/30 09:36:44;;;;;;;;;6.50;5.00;;;;;10.71;76.51;100977.28;5039431;28;46234;-70
2023/12/30 09:39:11;;;;;;;;;4.00;3.50;;;;;10.74;76.19;100977.22;5038100;28;64940;-70
2023/12/30 09:41:39;;;;;;;;;8.00;3.50;;;;;10.76;76.55;100984.13;5032207;28;45301;-69
2023/12/30 09:44:05;;;;;;;;;5.25;4.00;;;;;10.78;76.35;100981.47;5036738;28;45233;-69
2023/12/30 09:46:32;;;;;;;;;4.75;3.00;;;;;10.78;76.11;100984.09;5023873;28;45475;-70
2023/12/30 09:48:58;;;;;;;;;8.50;6.75;;;;;10.80;76.58;100993.66;5024498;28;45264;-70
2023/12/30 09:51:26;;;;;;;;;5.50;4.75;;;;;10.83;76.34;100990.09;5031587;28;45297;-70
2023/12/30 09:53:51;;;;;;;;;6.00;4.00;;;;;10.87;76.32;100994.38;5022680;28;45420;-70
2023/12/30 09:56:17;;;;;;;;;5.25;4.00;;;;;10.88;76.37;100996.06;5026035;28;75982;-71
2023/12/30 09:58:43;;;;;;;;;8.75;4.75;;;;;10.87;75.96;100986.53;5018616;28;45367;-71
2023/12/30 10:01:09;;;;;;;;;7.75;6.00;;;;;10.95;76.19;100991.56;5031505;28;45226;-70
2023/12/30 10:03:34;;;;;;;;;8.00;5.00;;;;;11.03;76.33;100989.63;5018047;28;70091;-70
2023/12/30 10:06:01;;;;;;;;;6.00;5.00;;;;;11.14;76.06;100995.44;5011695;28;71558;-70
2023/12/30 10:08:27;;;;;;;;;5.50;4.00;;;;;11.21;75.99;100988.28;5020868;28;45314;-70
2023/12/30 10:10:54;;;;;;;;;7.50;5.00;;;;;11.27;75.92;100982.03;5026986;28;45357;-70
2023/12/30 10:13:25;;;;;;;;;8.25;4.50;;;;;11.31;75.24;100984.50;5036308;28;45322;-71
2023/12/30 10:15:52;;;;;;;;;5.00;5.00;;;;;11.31;75.28;100979.28;5022329;28;46080;-70
2023/12/30 10:18:17;;;;;;;;;6.00;6.00;;;;;11.32;75.60;100978.38;5033101;28;45776;-70
2023/12/30 10:20:44;;;;;;;;;9.00;6.75;;;;;11.40;75.21;100975.56;5002346;28;45416;-70
2023/12/30 10:23:10;;;;;;;;;6.75;6.75;;;;;11.44;75.18;100969.34;5030086;28;45524;-70
2023/12/30 10:25:35;;;;;;;;;9.50;5.75;;;;;11.51;75.57;100972.66;5022758;28;53454;-70
2023/12/30 10:28:01;;;;;;;;;10.25;5.00;;;;;11.59;75.04;100974.16;5034695;28;45304;-71
2023/12/30 10:30:28;;;;;;;;;8.50;6.75;;;;;11.66;74.94;100967.00;5031385;28;45399;-70
2023/12/30 10:33:05;;;;;;;;;5.75;5.25;;;;;11.74;74.74;100972.03;5026840;28;45483;-69
2023/12/30 10:35:30;;;;;;;;;6.75;4.25;;;;;11.78;74.23;100977.13;5015918;28;45441;-71
2023/12/30 10:37:56;;;;;;;;;8.00;4.75;;;;;11.81;74.51;100970.09;5035715;28;73253;-71
2023/12/30 10:40:22;;;;;;;;;9.25;4.25;;;;;11.86;74.33;100971.66;5038621;28;45258;-71
2023/12/30 10:42:47;;;;;;;;;7.50;4.25;;;;;11.90;74.29;100956.72;5020586;28;45266;-70
2023/12/30 10:45:13;;;;;;;;;4.00;4.00;;;;;11.95;73.87;100950.47;5026409;28;51825;-71
2023/12/30 10:47:40;;;;;;;;;5.50;3.00;;;;;12.01;73.79;100945.97;5026069;28;56503;-70
2023/12/30 10:50:07;;;;;;;;;6.00;6.00;;;;;12.07;73.55;100935.28;5019770;28;45570;-71
2023/12/30 10:52:35;;;;;;;;;7.75;5.25;;;;;12.11;73.97;100924.66;5037988;28;45380;-70
2023/12/30 10:55:08;;;;;;;;;8.75;6.00;;;;;12.18;73.57;100934.94;5019830;28;46340;-70
2023/12/30 10:57:39;;;;;;;;;6.00;5.75;;;;;12.26;73.84;100928.56;5039719;28;45683;-70
2023/12/30 11:00:10;;;;;;;;;7.75;7.00;;;;;12.37;73.87;100930.84;5011205;28;45456;-71
2023/12/30 11:02:36;;;;;;;;;5.75;4.00;;;;;12.44;73.50;100923.63;5012405;28;45471;-70
2023/12/30 11:05:10;;;;;;;;;6.50;4.25;;;;;12.49;73.30;100916.47;5024976;28;46294;-71
2023/12/30 11:07:35;;;;;;;;;5.50;5.00;;;;;12.53;72.97;100918.09;5010459;28;45406;-70
2023/12/30 11:10:01;;;;;;;;;7.75;6.00;;;;;12.56;72.63;100915.38;5024111;28;45365;-70
2023/12/30 11:12:29;;;;;;;;;4.25;4.00;;;;;12.56;72.50;100904.88;5030551;28;47012;-70
2023/12/30 11:14:55;;;;;;;;;12.25;10.25;;;;;12.55;72.93;100903.16;5020893;28;46948;-71
2023/12/30 11:17:34;;;;;;;;;29.00;26.50;;;;;12.58;72.79;100900.44;5019353;28;45860;-70
2023/12/30 11:20:29;;;;;;;;;8.75;7.75;;;;;12.62;72.73;100894.16;5032819;28;45716;-70